Time;durP1;ratioP1;P1;durP2;ratioP2;P2;SDS_P1;SDS_P2;PMS_P1;PMS_P2;Temp;Humidity;BMP_temperature;BMP_pressure;BME280_temperature;BME280_humidity;BME280_pressure;Samples;Min_cycle;Max_cycle;Signal;HPM_P1;HPM_P2
2022/10/24 04:00:28;;;;;;;6.80;2.37;;;17.80;99.90;;;;;;5962941;23;20381;-63
2022/10/24 04:02:55;;;;;;;4.20;2.30;;;17.80;99.90;;;;;;4976216;28;20439;-63
2022/10/24 04:05:22;;;;;;;8.77;2.53;;;17.80;99.90;;;;;;4975621;28;20538;-63
2022/10/24 04:07:48;;;;;;;7.87;2.23;;;17.90;99.90;;;;;;4975848;28;20519;-64
2022/10/24 04:10:15;;;;;;;13.97;3.10;;;17.90;99.90;;;;;;4975374;28;20455;-63
2022/10/24 04:12:42;;;;;;;5.80;2.37;;;17.90;99.90;;;;;;4975405;28;20478;-63
2022/10/24 04:15:09;;;;;;;5.20;2.90;;;17.90;99.90;;;;;;4975527;28;20455;-62
2022/10/24 04:17:37;;;;;;;9.80;3.27;;;18.00;99.90;;;;;;4975624;28;20459;-63
2022/10/24 04:20:05;;;;;;;6.60;3.07;;;18.00;99.90;;;;;;4975221;28;20463;-63
2022/10/24 04:22:32;;;;;;;12.43;3.63;;;18.00;99.90;;;;;;4974989;28;20974;-63
2022/10/24 04:24:58;;;;;;;9.90;2.87;;;18.00;99.90;;;;;;4975219;28;20514;-64
2022/10/24 04:27:25;;;;;;;6.27;2.77;;;18.00;99.90;;;;;;4975528;28;20454;-63
2022/10/24 04:29:52;;;;;;;9.57;3.23;;;17.90;99.90;;;;;;4975355;28;20509;-63
2022/10/24 04:32:19;;;;;;;8.57;3.60;;;17.90;99.90;;;;;;4975262;28;20479;-63
2022/10/24 04:34:47;;;;;;;7.30;3.10;;;17.90;99.90;;;;;;4975102;28;20455;-63
2022/10/24 04:37:13;;;;;;;9.67;4.00;;;17.80;99.90;;;;;;4975389;28;20454;-63
2022/10/24 04:39:40;;;;;;;13.03;3.00;;;17.80;99.90;;;;;;4975291;28;20459;-63
2022/10/24 04:42:07;;;;;;;6.30;2.73;;;17.80;99.90;;;;;;4976042;28;20475;-63
2022/10/24 04:44:33;;;;;;;9.37;3.43;;;17.70;99.90;;;;;;4979053;28;20509;-63
2022/10/24 04:47:00;;;;;;;7.70;2.50;;;17.70;99.90;;;;;;4979438;28;20458;-64
2022/10/24 04:49:27;;;;;;;6.70;2.30;;;17.70;99.90;;;;;;4979363;28;20454;-62
2022/10/24 04:51:55;;;;;;;7.90;2.90;;;17.60;99.90;;;;;;4978935;28;20540;-63
2022/10/24 04:54:22;;;;;;;8.13;2.80;;;17.60;99.90;;;;;;4978959;28;20486;-62
2022/10/24 04:56:48;;;;;;;11.10;2.70;;;17.60;99.90;;;;;;4978859;28;20454;-62
2022/10/24 04:59:15;;;;;;;8.17;3.83;;;17.60;99.90;;;;;;4978816;28;20459;-63
2022/10/24 05:01:41;;;;;;;8.33;2.93;;;17.60;99.90;;;;;;4978666;28;20557;-62
2022/10/24 05:04:08;;;;;;;10.40;3.30;;;17.60;99.90;;;;;;4979012;28;20509;-63
2022/10/24 05:06:35;;;;;;;6.40;3.30;;;17.60;99.90;;;;;;4978482;28;20517;-63
2022/10/24 05:09:03;;;;;;;9.50;2.70;;;17.60;99.90;;;;;;4978545;28;20465;-63
2022/10/24 05:11:30;;;;;;;7.10;3.10;;;17.70;99.90;;;;;;4978588;28;20532;-63
2022/10/24 05:13:57;;;;;;;6.10;3.33;;;17.60;99.90;;;;;;4979396;28;20459;-63
2022/10/24 05:16:24;;;;;;;9.60;2.97;;;17.70;99.90;;;;;;4978782;28;20455;-63
2022/10/24 05:18:50;;;;;;;8.33;3.57;;;17.70;99.90;;;;;;4978586;28;20523;-63
2022/10/24 05:21:17;;;;;;;11.43;3.80;;;17.60;99.90;;;;;;4978163;28;20475;-63
2022/10/24 05:23:44;;;;;;;9.70;3.10;;;17.70;99.90;;;;;;4978201;28;20454;-63
2022/10/24 05:26:12;;;;;;;7.23;3.40;;;17.70;99.90;;;;;;4978137;28;20518;-64
2022/10/24 05:28:38;;;;;;;10.20;3.63;;;17.60;99.90;;;;;;4978077;28;20462;-62
2022/10/24 05:31:05;;;;;;;7.07;3.27;;;17.60;99.90;;;;;;4978249;28;20533;-63
2022/10/24 05:33:32;;;;;;;8.03;3.27;;;17.60;99.90;;;;;;4978236;28;20455;-62
2022/10/24 05:35:58;;;;;;;11.13;3.20;;;17.60;99.90;;;;;;4983052;28;20458;-63
2022/10/24 05:38:25;;;;;;;8.73;3.13;;;17.70;99.90;;;;;;4980473;28;20458;-63
2022/10/24 05:40:52;;;;;;;6.10;2.73;;;17.70;99.90;;;;;;4978439;28;20474;-63
2022/10/24 05:43:20;;;;;;;9.07;2.90;;;17.80;99.90;;;;;;4977837;28;20455;-64
2022/10/24 05:45:48;;;;;;;12.57;2.60;;;17.90;99.90;;;;;;4978089;28;20509;-64
2022/10/24 05:48:15;;;;;;;7.03;3.13;;;17.90;99.90;;;;;;4977816;28;20824;-63
2022/10/24 05:50:42;;;;;;;7.23;2.90;;;17.90;99.90;;;;;;4977376;28;20471;-62
2022/10/24 05:53:09;;;;;;;7.13;3.23;;;17.90;99.90;;;;;;4977579;28;20572;-63
2022/10/24 05:55:36;;;;;;;7.30;3.13;;;17.80;99.90;;;;;;4976900;28;20458;-62
2022/10/24 05:58:02;;;;;;;5.43;3.23;;;17.60;99.90;;;;;;4977681;28;20462;-64
2022/10/24 06:00:32;;;;;;;9.47;3.80;;;17.40;99.90;;;;;;4977658;28;20509;-64
2022/10/24 06:02:59;;;;;;;9.97;3.40;;;17.20;99.90;;;;;;4977876;28;20493;-62
2022/10/24 06:05:26;;;;;;;6.40;2.80;;;17.00;99.90;;;;;;4977766;28;20458;-62
2022/10/24 06:07:53;;;;;;;6.70;3.10;;;16.90;99.90;;;;;;4977574;28;20541;-64
2022/10/24 06:10:20;;;;;;;9.00;3.23;;;16.80;99.90;;;;;;4977539;28;20455;-62
2022/10/24 06:12:47;;;;;;;7.57;3.23;;;16.70;99.90;;;;;;4977632;28;20525;-63
2022/10/24 06:15:13;;;;;;;7.07;3.10;;;16.60;99.90;;;;;;4977640;28;20458;-64
2022/10/24 06:17:41;;;;;;;7.53;2.80;;;16.60;99.90;;;;;;4977338;28;20880;-63
2022/10/24 06:20:09;;;;;;;8.10;3.33;;;16.60;99.90;;;;;;4977577;28;20865;-64
2022/10/24 06:22:36;;;;;;;8.40;3.27;;;16.60;99.90;;;;;;4976891;28;21036;-64
2022/10/24 06:25:02;;;;;;;8.53;3.70;;;16.60;99.90;;;;;;4976962;28;20454;-64
2022/10/24 06:27:29;;;;;;;10.80;3.20;;;16.50;99.90;;;;;;4977536;28;20477;-63
2022/10/24 06:29:56;;;;;;;6.77;2.60;;;16.50;99.90;;;;;;4977436;28;20458;-63
2022/10/24 06:32:22;;;;;;;5.57;2.90;;;16.50;99.90;;;;;;4976951;28;20583;-63
2022/10/24 06:34:51;;;;;;;12.80;3.50;;;16.50;99.90;;;;;;4976928;28;20459;-63
2022/10/24 06:37:17;;;;;;;9.03;3.40;;;16.50;99.90;;;;;;4977221;28;20490;-63
2022/10/24 06:39:44;;;;;;;10.67;3.43;;;16.50;99.90;;;;;;4977008;28;20513;-63
2022/10/24 06:42:11;;;;;;;6.10;3.17;;;16.40;99.90;;;;;;4977628;28;20837;-63
2022/10/24 06:44:38;;;;;;;8.00;3.00;;;16.50;99.90;;;;;;4976677;28;20934;-63
2022/10/24 06:47:05;;;;;;;5.80;3.33;;;16.50;99.90;;;;;;4976624;28;20485;-62
2022/10/24 06:49:31;;;;;;;8.90;3.53;;;16.50;99.90;;;;;;4976767;28;20450;-62
2022/10/24 06:52:00;;;;;;;11.50;2.57;;;16.50;99.90;;;;;;4976722;28;20482;-63
2022/10/24 06:54:26;;;;;;;13.87;4.40;;;16.50;99.90;;;;;;4976865;28;20455;-62
2022/10/24 06:56:53;;;;;;;6.50;3.33;;;16.50;99.90;;;;;;4976922;28;20454;-62
2022/10/24 06:59:20;;;;;;;8.30;3.30;;;16.60;99.90;;;;;;4976609;28;20467;-62
2022/10/24 07:01:46;;;;;;;10.20;2.93;;;16.50;99.90;;;;;;4976223;28;20490;-62
2022/10/24 07:04:13;;;;;;;6.67;3.53;;;16.50;99.90;;;;;;4976853;28;20853;-62
2022/10/24 07:06:40;;;;;;;7.00;3.10;;;16.50;99.90;;;;;;4975698;28;20865;-62
2022/10/24 07:09:08;;;;;;;6.43;3.10;;;16.60;99.90;;;;;;4976957;28;20455;-63
2022/10/24 07:11:35;;;;;;;7.30;3.53;;;16.60;99.90;;;;;;4976701;28;20525;-63
2022/10/24 07:14:02;;;;;;;8.87;3.17;;;16.60;99.90;;;;;;4976481;28;20474;-62
2022/10/24 07:16:28;;;;;;;12.77;4.63;;;16.60;99.90;;;;;;4976622;28;20459;-63
2022/10/24 07:18:55;;;;;;;8.93;3.00;;;16.60;99.90;;;;;;4976519;28;20462;-62
2022/10/24 07:21:25;;;;;;;6.33;3.23;;;16.60;99.90;;;;;;4976281;28;20525;-61
2022/10/24 07:23:52;;;;;;;8.77;3.27;;;16.50;99.90;;;;;;4976280;28;20510;-62
2022/10/24 07:26:22;;;;;;;6.87;3.50;;;16.50;99.90;;;;;;4976167;28;20513;-62
2022/10/24 07:28:52;;;;;;;7.93;3.30;;;16.50;99.90;;;;;;4975977;28;20818;-61
2022/10/24 07:31:19;;;;;;;12.10;4.17;;;16.40;99.90;;;;;;4975952;28;20477;-62
2022/10/24 07:33:46;;;;;;;8.70;3.30;;;16.40;99.90;;;;;;4975947;28;20509;-61
2022/10/24 07:36:16;;;;;;;9.40;3.93;;;16.40;99.90;;;;;;4976134;28;20454;-63
2022/10/24 07:38:43;;;;;;;10.50;4.00;;;16.40;99.90;;;;;;4975960;28;20443;-63
2022/10/24 07:41:10;;;;;;;6.40;3.10;;;16.40;99.90;;;;;;4975859;28;20478;-62
2022/10/24 07:43:38;;;;;;;12.97;4.23;;;16.40;99.90;;;;;;4975852;28;20450;-61
2022/10/24 07:46:06;;;;;;;8.33;4.20;;;16.40;99.90;;;;;;4976150;28;20462;-62
2022/10/24 07:48:34;;;;;;;13.57;4.70;;;16.40;99.90;;;;;;4975822;28;20459;-62
2022/10/24 07:51:04;;;;;;;8.07;4.63;;;16.30;99.90;;;;;;4976270;28;20474;-62
2022/10/24 07:53:31;;;;;;;5.50;3.37;;;16.30;99.90;;;;;;4975729;28;20463;-63
2022/10/24 07:55:59;;;;;;;15.33;4.83;;;16.30;99.90;;;;;;4975824;28;20458;-64
2022/10/24 07:58:26;;;;;;;7.23;3.97;;;16.20;99.90;;;;;;4975590;28;20545;-62
2022/10/24 08:00:54;;;;;;;10.50;4.60;;;16.20;99.90;;;;;;4975388;28;20482;-62
2022/10/24 08:03:21;;;;;;;10.23;4.50;;;16.10;99.90;;;;;;4975855;28;20463;-62
2022/10/24 08:05:49;;;;;;;8.70;4.03;;;16.20;99.90;;;;;;4975420;28;20459;-62
2022/10/24 08:08:16;;;;;;;9.50;3.90;;;16.20;99.90;;;;;;4975619;28;20548;-62
2022/10/24 08:10:42;;;;;;;7.60;3.97;;;16.10;99.90;;;;;;4976051;28;20486;-62
2022/10/24 08:13:09;;;;;;;12.47;3.67;;;16.10;99.90;;;;;;4975432;28;20529;-62
2022/10/24 08:15:35;;;;;;;7.73;3.80;;;16.20;99.90;;;;;;4975497;28;20458;-61
2022/10/24 08:18:04;;;;;;;10.70;4.10;;;16.20;99.90;;;;;;4975659;28;20517;-62
2022/10/24 08:20:30;;;;;;;8.53;3.93;;;16.20;99.90;;;;;;4975297;28;20937;-62
2022/10/24 08:22:57;;;;;;;9.70;4.00;;;16.20;99.90;;;;;;4975077;28;20930;-62
2022/10/24 08:25:24;;;;;;;8.13;4.00;;;16.30;99.90;;;;;;4975014;28;20937;-62
2022/10/24 08:27:50;;;;;;;6.90;3.80;;;16.20;99.90;;;;;;4975124;28;20454;-62
2022/10/24 08:30:19;;;;;;;11.93;4.27;;;16.20;99.90;;;;;;4974912;28;20455;-62
2022/10/24 08:32:46;;;;;;;7.37;3.70;;;16.20;99.90;;;;;;4975084;28;20495;-62
2022/10/24 08:35:16;;;;;;;7.80;3.20;;;16.20;99.90;;;;;;4974961;28;20454;-62
2022/10/24 08:37:43;;;;;;;8.80;3.50;;;16.30;99.90;;;;;;4975210;28;20868;-61
2022/10/24 08:40:16;;;;;;;6.07;3.53;;;16.20;99.90;;;;;;4975023;28;20454;-62
2022/10/24 08:42:43;;;;;;;5.30;2.70;;;16.30;99.90;;;;;;4975472;28;20439;-62
2022/10/24 08:45:13;;;;;;;6.63;3.23;;;16.40;99.90;;;;;;4975211;28;20455;-62
2022/10/24 08:47:43;;;;;;;6.23;4.70;;;16.50;99.90;;;;;;4974940;28;20450;-62
2022/10/24 08:50:17;;;;;;;6.50;3.80;;;16.50;99.90;;;;;;4975078;28;20517;-62
2022/10/24 08:52:48;;;;;;;5.03;3.20;;;16.60;99.90;;;;;;4974951;28;20463;-62
2022/10/24 08:55:17;;;;;;;6.73;3.33;;;16.60;99.90;;;;;;4974953;28;20450;-62
2022/10/24 08:57:48;;;;;;;5.03;2.60;;;16.70;99.90;;;;;;4974892;28;20462;-62
2022/10/24 09:00:19;;;;;;;7.27;3.03;;;16.70;99.90;;;;;;4974874;28;20439;-63
2022/10/24 09:02:51;;;;;;;7.40;3.20;;;16.70;99.90;;;;;;4974634;28;20446;-62
2022/10/24 09:05:24;;;;;;;3.10;2.57;;;16.70;99.90;;;;;;4974315;28;20911;-61
2022/10/24 09:07:56;;;;;;;5.27;2.60;;;16.70;99.90;;;;;;4974857;28;20446;-62
2022/10/24 09:10:30;;;;;;;9.67;3.20;;;16.60;99.90;;;;;;4974562;28;20438;-62
2022/10/24 09:12:57;;;;;;;4.43;2.40;;;16.60;99.90;;;;;;4975122;28;20513;-63
2022/10/24 09:15:28;;;;;;;9.63;3.00;;;16.60;99.90;;;;;;4974949;28;20459;-63
2022/10/24 09:17:56;;;;;;;9.70;2.77;;;16.60;99.90;;;;;;4974870;28;20951;-61
2022/10/24 09:20:27;;;;;;;20.73;2.77;;;16.60;99.90;;;;;;4974872;28;20513;-62
2022/10/24 09:22:57;;;;;;;8.93;2.90;;;16.60;99.90;;;;;;4975359;28;20435;-62
2022/10/24 09:25:28;;;;;;;5.40;2.40;;;16.60;99.90;;;;;;4974601;28;20814;-61
2022/10/24 09:27:55;;;;;;;6.30;2.43;;;16.60;99.90;;;;;;4974861;28;20898;-61
2022/10/24 09:30:25;;;;;;;5.33;2.70;;;16.60;99.90;;;;;;4977385;28;20454;-61
2022/10/24 09:32:52;;;;;;;8.67;3.40;;;16.70;99.90;;;;;;4978607;28;20561;-63
2022/10/24 09:35:22;;;;;;;5.93;2.73;;;16.70;99.90;;;;;;4978345;28;20874;-63
2022/10/24 09:37:54;;;;;;;6.17;2.90;;;16.70;99.90;;;;;;4986679;28;20446;-62
2022/10/24 09:40:24;;;;;;;5.30;2.70;;;16.70;99.90;;;;;;4986441;28;20449;-63
2022/10/24 09:42:54;;;;;;;5.40;3.17;;;16.70;99.90;;;;;;4986830;28;20443;-62
2022/10/24 09:45:31;;;;;;;8.53;3.00;;;16.70;99.90;;;;;;4985328;28;20493;-62
2022/10/24 09:48:01;;;;;;;6.40;2.83;;;16.70;99.90;;;;;;4984787;28;20509;-63
2022/10/24 09:50:29;;;;;;;10.90;2.97;;;16.80;99.90;;;;;;4977929;28;20454;-63
2022/10/24 09:52:59;;;;;;;9.53;2.87;;;16.80;99.90;;;;;;4978111;28;20474;-63
2022/10/24 09:55:29;;;;;;;5.13;2.47;;;16.90;99.90;;;;;;4978165;28;20486;-63
2022/10/24 09:58:02;;;;;;;6.23;2.60;;;16.80;99.90;;;;;;4977997;28;20443;-63
2022/10/24 10:00:32;;;;;;;5.50;2.53;;;16.80;99.90;;;;;;4977828;28;20565;-63
2022/10/24 10:03:01;;;;;;;4.83;2.40;;;16.80;99.90;;;;;;4978053;28;20559;-63
2022/10/24 10:05:42;;;;;;;7.97;3.00;;;16.80;99.90;;;;;;4978012;28;20459;-62
2022/10/24 10:08:15;;;;;;;3.50;3.03;;;16.80;99.90;;;;;;4977387;28;20937;-63
2022/10/24 10:10:42;;;;;;;6.00;2.50;;;16.80;99.90;;;;;;4977622;28;20557;-62
2022/10/24 10:13:22;;;;;;;8.60;3.03;;;16.80;99.90;;;;;;4977531;28;20475;-62
2022/10/24 10:15:52;;;;;;;5.27;3.23;;;16.90;99.90;;;;;;4977613;28;20446;-64
2022/10/24 10:18:26;;;;;;;9.87;3.20;;;16.90;99.90;;;;;;4977204;28;20969;-62
2022/10/24 10:21:07;;;;;;;9.00;3.60;;;17.00;99.90;;;;;;4977280;28;20471;-62
2022/10/24 10:23:38;;;;;;;8.40;3.20;;;17.00;99.90;;;;;;4977288;28;20431;-62
2022/10/24 10:26:20;;;;;;;4.10;3.20;;;17.00;99.90;;;;;;4976956;28;20447;-62
2022/10/24 10:28:52;;;;;;;4.90;4.40;;;17.10;99.90;;;;;;4977028;28;20805;-62
2022/10/24 10:31:22;;;;;;;9.90;3.20;;;17.10;99.90;;;;;;4977189;28;21004;-62
2022/10/24 10:33:59;;;;;;;8.73;3.03;;;17.20;99.90;;;;;;4977401;28;20482;-63
2022/10/24 10:36:31;;;;;;;8.63;3.03;;;17.20;99.90;;;;;;4976941;28;20493;-63
2022/10/24 10:39:15;;;;;;;8.10;3.40;;;17.30;99.90;;;;;;4977215;28;20493;-63
2022/10/24 10:41:47;;;;;;;4.33;2.90;;;17.30;99.90;;;;;;4976526;28;20474;-63
2022/10/24 10:44:31;;;;;;;7.13;3.50;;;17.40;99.90;;;;;;4977103;28;20462;-63
2022/10/24 10:47:12;;;;;;;12.33;4.00;;;17.40;99.90;;;;;;4976951;28;20439;-63
2022/10/24 10:49:40;;;;;;;5.47;2.87;;;17.50;99.90;;;;;;4976775;28;20447;-63
2022/10/24 10:52:13;;;;;;;4.07;2.50;;;17.50;99.90;;;;;;4976491;28;20481;-63
2022/10/24 10:54:56;;;;;;;4.90;2.27;;;17.50;99.90;;;;;;4976787;28;20467;-66
2022/10/24 10:57:29;;;;;;;5.13;2.40;;;17.50;99.90;;;;;;4977372;28;20462;-64
2022/10/24 11:00:06;;;;;;;3.30;2.40;;;17.60;99.90;;;;;;4976398;28;20493;-62
2022/10/24 11:02:50;;;;;;;2.23;2.07;;;17.60;99.90;;;;;;4976358;28;21020;-61
2022/10/24 11:05:26;;;;;;;8.00;1.97;;;17.60;99.90;;;;;;4976299;28;20443;-62
2022/10/24 11:08:03;;;;;;;6.40;1.90;;;17.70;99.90;;;;;;4976353;28;20529;-62
2022/10/24 11:10:36;;;;;;;8.53;2.37;;;17.70;99.90;;;;;;4976508;28;20498;-62
2022/10/24 11:13:06;;;;;;;5.03;1.90;;;17.80;99.90;;;;;;4976285;28;20443;-62
2022/10/24 11:15:36;;;;;;;7.03;1.90;;;17.80;99.90;;;;;;4976409;28;20454;-62
2022/10/24 11:18:09;;;;;;;5.70;1.53;;;17.80;99.90;;;;;;4976652;28;20454;-62
2022/10/24 11:20:39;;;;;;;4.13;1.63;;;17.90;99.90;;;;;;4976222;28;21001;-62
2022/10/24 11:23:14;;;;;;;3.97;1.97;;;17.90;99.90;;;;;;4976183;28;20443;-62
2022/10/24 11:25:46;;;;;;;2.43;2.07;;;17.80;99.90;;;;;;4976697;28;20497;-62
2022/10/24 11:28:20;;;;;;;1.60;1.47;;;17.80;99.90;;;;;;4975970;28;20447;-63
2022/10/24 11:30:52;;;;;;;4.37;2.10;;;17.80;99.90;;;;;;4975690;28;20529;-63
2022/10/24 11:33:23;;;;;;;2.60;2.03;;;17.80;99.90;;;;;;4976069;28;20518;-63
2022/10/24 11:36:09;;;;;;;2.53;1.70;;;17.80;99.90;;;;;;4975959;28;20443;-62
2022/10/24 11:38:43;;;;;;;3.70;1.73;;;17.80;99.90;;;;;;4975527;28;20443;-62
2022/10/24 11:41:46;;;;;;;2.27;1.50;;;17.80;99.90;;;;;;4975714;28;20482;-62
2022/10/24 11:44:33;;;;;;;5.27;1.77;;;17.80;99.90;;;;;;4976406;28;20446;-63
2022/10/24 11:47:10;;;;;;;2.63;1.23;;;17.90;99.90;;;;;;4975807;28;20446;-62
2022/10/24 11:49:43;;;;;;;3.77;1.73;;;17.90;99.90;;;;;;4976533;28;20450;-63
2022/10/24 11:52:18;;;;;;;3.60;1.63;;;17.90;99.90;;;;;;4975255;28;20478;-63
2022/10/24 11:54:51;;;;;;;3.00;1.40;;;18.00;99.90;;;;;;4975316;28;21023;-62
2022/10/24 11:57:24;;;;;;;3.77;1.30;;;18.00;99.90;;;;;;4975438;28;20439;-61
2022/10/24 11:59:53;;;;;;;3.30;1.80;;;18.10;99.90;;;;;;4976793;28;20443;-62
2022/10/24 12:02:52;;;;;;;4.60;1.57;;;18.20;99.90;;;;;;4978857;28;20573;-62
2022/10/24 12:05:38;;;;;;;0.90;0.90;;;18.20;99.90;;;;;;4976327;28;20491;-62
2022/10/24 12:08:18;;;;;;;5.00;1.90;;;18.20;99.90;;;;;;4976135;28;20442;-62
2022/10/24 12:11:15;;;;;;;1.20;1.10;;;18.20;99.90;;;;;;4975516;28;20478;-63
2022/10/24 12:14:05;;;;;;;3.00;2.50;;;18.30;99.90;;;;;;4975675;28;20467;-63
2022/10/24 12:16:45;;;;;;;6.40;1.90;;;18.30;99.90;;;;;;4975760;28;20439;-63
2022/10/24 12:19:15;;;;;;;2.43;1.47;;;18.40;99.90;;;;;;4975440;28;20817;-62
2022/10/24 12:21:47;;;;;;;3.40;1.87;;;18.40;99.90;;;;;;4975306;28;20482;-62
2022/10/24 12:24:24;;;;;;;1.50;1.40;;;18.40;99.90;;;;;;4975545;28;20439;-64
2022/10/24 12:26:56;;;;;;;2.30;1.50;;;18.40;99.90;;;;;;4975264;28;20438;-63
2022/10/24 12:29:26;;;;;;;2.53;1.97;;;18.40;99.90;;;;;;4976563;28;20565;-63
2022/10/24 12:31:54;;;;;;;4.23;1.80;;;18.40;99.90;;;;;;4975991;28;20566;-63
2022/10/24 12:34:43;;;;;;;2.50;1.80;;;18.40;99.90;;;;;;4976560;28;20489;-64
2022/10/24 12:37:32;;;;;;;3.43;1.40;;;18.40;99.90;;;;;;4974982;28;21090;-62
2022/10/24 12:39:59;;;;;;;2.93;2.00;;;18.30;99.90;;;;;;4975055;28;20443;-64
2022/10/24 12:43:03;;;;;;;2.47;1.20;;;18.30;99.90;;;;;;4975123;28;20482;-64
2022/10/24 12:45:32;;;;;;;2.17;1.80;;;18.30;99.90;;;;;;4975027;28;20450;-63
2022/10/24 12:48:27;;;;;;;6.43;1.83;;;18.40;99.90;;;;;;4974988;28;20467;-63
2022/10/24 12:51:12;;;;;;;3.20;1.80;;;18.40;99.90;;;;;;4975155;28;20534;-62
2022/10/24 12:54:01;;;;;;;1.50;1.40;;;18.40;99.90;;;;;;4974572;28;20930;-62
2022/10/24 12:56:28;;;;;;;1.20;1.10;;;18.30;99.90;;;;;;4974949;28;20550;-63
2022/10/24 12:59:18;;;;;;;3.90;1.70;;;18.40;99.90;;;;;;4975055;28;20469;-62
2022/10/24 13:01:48;;;;;;;7.03;1.67;;;18.40;99.90;;;;;;4970863;28;20486;-62
2022/10/24 13:04:43;;;;;;;3.93;1.53;;;18.30;99.90;;;;;;4975843;28;20450;-62
2022/10/24 13:07:37;;;;;;;1.50;1.40;;;18.40;99.90;;;;;;4978723;28;20435;-63
2022/10/24 13:10:19;;;;;;;3.70;1.70;;;18.50;99.90;;;;;;4978381;28;20837;-63
2022/10/24 13:12:59;;;;;;;4.50;2.00;;;18.60;99.90;;;;;;4978807;28;20505;-63
2022/10/24 13:15:31;;;;;;;3.50;1.60;;;18.70;99.90;;;;;;4978515;28;20463;-63
2022/10/24 13:18:11;;;;;;;4.20;1.47;;;18.70;99.90;;;;;;4978201;28;20493;-63
2022/10/24 13:20:41;;;;;;;3.53;2.10;;;18.80;99.90;;;;;;4978112;28;20887;-63
2022/10/24 13:23:15;;;;;;;3.90;1.50;;;18.90;99.90;;;;;;4978260;28;20458;-64
2022/10/24 13:25:43;;;;;;;4.13;2.00;;;18.90;99.90;;;;;;4978798;28;20498;-63
2022/10/24 13:28:42;;;;;;;5.43;1.50;;;19.00;99.90;;;;;;4978374;28;20513;-63
2022/10/24 13:31:54;;;;;;;2.40;1.50;;;19.00;99.90;;;;;;4972974;28;20506;-63
2022/10/24 13:34:32;;;;;;;2.90;1.50;;;19.00;99.90;;;;;;4943062;28;20509;-63
2022/10/24 13:37:15;;;;;;;2.60;1.50;;;19.00;99.90;;;;;;4979150;28;20853;-63
2022/10/24 13:39:48;;;;;;;1.80;1.70;;;19.00;99.90;;;;;;4978800;28;20445;-63
2022/10/24 13:42:32;;;;;;;4.97;1.47;;;19.00;99.90;;;;;;4977578;28;20977;-64
2022/10/24 13:45:02;;;;;;;2.37;1.77;;;19.00;99.90;;;;;;4977681;28;20443;-62
2022/10/24 13:47:33;;;;;;;1.90;1.77;;;19.00;99.90;;;;;;4977777;28;20446;-63
2022/10/24 13:50:06;;;;;;;1.70;1.60;;;19.00;99.90;;;;;;4977670;28;20493;-62
2022/10/24 13:52:39;;;;;;;3.50;2.17;;;19.00;99.90;;;;;;4977457;28;20478;-63
2022/10/24 13:55:19;;;;;;;7.00;1.77;;;19.00;99.90;;;;;;4977803;28;20562;-63
2022/10/24 13:58:00;;;;;;;7.10;2.40;;;19.00;99.90;;;;;;4977442;28;20468;-64
2022/10/24 14:00:29;;;;;;;3.87;1.90;;;19.00;99.90;;;;;;4977192;28;20457;-65
2022/10/24 14:02:58;;;;;;;2.30;1.87;;;19.00;99.90;;;;;;4977363;28;20493;-65
2022/10/24 14:05:36;;;;;;;2.60;1.83;;;19.10;99.90;;;;;;4977420;28;20457;-65
2022/10/24 14:08:05;;;;;;;2.40;1.43;;;19.20;99.90;;;;;;4977211;28;20965;-65
2022/10/24 14:10:32;;;;;;;2.47;1.73;;;19.20;99.90;;;;;;4977274;28;20459;-65
2022/10/24 14:13:00;;;;;;;1.90;1.67;;;19.20;99.90;;;;;;4977268;28;20512;-64
2022/10/24 14:15:29;;;;;;;1.70;1.47;;;19.20;99.90;;;;;;4976641;28;21056;-64
2022/10/24 14:17:59;;;;;;;2.50;1.40;;;19.20;99.90;;;;;;4977574;28;20459;-63
2022/10/24 14:20:29;;;;;;;2.37;1.60;;;19.20;99.90;;;;;;4977191;28;20506;-63
2022/10/24 14:22:57;;;;;;;2.07;1.57;;;19.20;99.90;;;;;;4977257;28;20439;-63
2022/10/24 14:25:27;;;;;;;3.73;1.83;;;19.20;99.90;;;;;;4977044;28;20455;-63
2022/10/24 14:27:56;;;;;;;2.03;1.50;;;19.20;99.90;;;;;;4977385;28;20797;-62
2022/10/24 14:30:25;;;;;;;1.77;1.43;;;19.20;99.90;;;;;;4977135;28;20857;-62
2022/10/24 14:33:18;;;;;;;3.77;1.73;;;19.10;99.90;;;;;;4976958;28;20458;-63
2022/10/24 14:35:45;;;;;;;4.53;1.33;;;19.00;99.90;;;;;;4976917;28;20530;-63
2022/10/24 14:38:16;;;;;;;3.83;1.47;;;19.00;99.90;;;;;;4976858;28;20454;-64
2022/10/24 14:40:44;;;;;;;4.00;1.43;;;19.00;99.90;;;;;;4976731;28;20529;-63
2022/10/24 14:43:14;;;;;;;1.50;1.40;;;18.90;99.90;;;;;;4976680;28;20454;-63
2022/10/24 14:45:40;;;;;;;2.37;1.40;;;18.80;99.90;;;;;;4976703;28;20493;-63
2022/10/24 14:48:22;;;;;;;3.20;1.43;;;18.80;99.90;;;;;;4976756;28;20509;-65
2022/10/24 14:50:49;;;;;;;4.60;1.27;;;18.80;99.90;;;;;;4976680;28;20529;-63
2022/10/24 14:53:24;;;;;;;2.00;1.70;;;18.80;99.90;;;;;;4976455;28;20517;-62
2022/10/24 14:55:52;;;;;;;1.90;1.50;;;18.90;99.90;;;;;;4976397;28;20459;-63
2022/10/24 14:58:23;;;;;;;1.60;1.50;;;19.00;99.90;;;;;;4976273;28;20463;-62
2022/10/24 15:00:50;;;;;;;1.27;1.17;;;19.10;99.90;;;;;;4978890;28;20483;-63
2022/10/24 15:03:17;;;;;;;2.47;1.60;;;19.10;99.90;;;;;;4977538;28;20462;-63
2022/10/24 15:05:54;;;;;;;4.00;2.13;;;19.10;99.90;;;;;;4976462;28;20450;-62
2022/10/24 15:08:36;;;;;;;3.73;1.93;;;19.10;99.90;;;;;;4976084;28;20872;-61
2022/10/24 15:11:06;;;;;;;3.63;1.63;;;19.00;99.90;;;;;;4976311;28;20474;-64
2022/10/24 15:13:43;;;;;;;4.17;1.50;;;18.90;99.90;;;;;;4976076;28;20466;-64
2022/10/24 15:16:20;;;;;;;2.27;1.90;;;18.80;99.90;;;;;;4976161;28;20467;-63
2022/10/24 15:18:47;;;;;;;3.13;1.80;;;18.80;99.90;;;;;;4975924;28;20501;-63
2022/10/24 15:21:16;;;;;;;9.30;1.40;;;18.80;99.90;;;;;;4975915;28;20840;-64
2022/10/24 15:23:48;;;;;;;2.30;2.10;;;18.70;99.90;;;;;;4956667;28;20778;-62
2022/10/24 15:26:19;;;;;;;4.57;2.00;;;18.70;99.90;;;;;;4956282;28;20443;-63
2022/10/24 15:28:48;;;;;;;3.40;1.60;;;18.60;99.90;;;;;;4956301;28;20451;-65
2022/10/24 15:31:17;;;;;;;3.93;1.70;;;18.60;99.90;;;;;;4956527;28;20812;-62
2022/10/24 15:33:44;;;;;;;4.80;1.60;;;18.60;99.90;;;;;;4956031;28;21006;-62
2022/10/24 15:36:19;;;;;;;3.07;1.37;;;18.50;99.90;;;;;;4956347;28;20553;-62
2022/10/24 15:38:48;;;;;;;3.07;1.80;;;18.40;99.90;;;;;;4956736;28;20530;-63
2022/10/24 15:41:15;;;;;;;2.83;1.83;;;18.40;99.90;;;;;;4956212;28;21070;-63
2022/10/24 15:43:42;;;;;;;6.67;2.10;;;18.30;99.90;;;;;;4956284;28;20459;-63
2022/10/24 15:46:09;;;;;;;4.20;1.50;;;18.30;99.90;;;;;;4956783;28;20462;-63
2022/10/24 15:48:36;;;;;;;6.30;1.70;;;18.20;99.90;;;;;;4956483;28;21001;-64
2022/10/24 15:51:04;;;;;;;4.73;1.60;;;18.20;99.90;;;;;;4956541;28;20550;-63
2022/10/24 15:53:30;;;;;;;1.70;1.60;;;18.20;99.90;;;;;;4956485;28;20451;-64
2022/10/24 15:55:58;;;;;;;5.30;1.67;;;18.20;99.90;;;;;;4956236;28;20990;-63
2022/10/24 15:58:27;;;;;;;2.67;1.60;;;18.10;99.90;;;;;;4956483;28;20467;-63
2022/10/24 16:00:54;;;;;;;3.67;1.70;;;18.00;99.90;;;;;;4955767;28;20491;-63
2022/10/24 16:03:23;;;;;;;2.40;1.60;;;18.00;99.90;;;;;;4956045;28;20460;-63
2022/10/24 16:05:52;;;;;;;3.20;1.80;;;18.00;99.90;;;;;;4955877;28;20459;-63
2022/10/24 16:08:19;;;;;;;4.27;1.47;;;17.90;99.90;;;;;;4956555;28;20919;-63
2022/10/24 16:10:49;;;;;;;7.43;1.60;;;17.90;99.90;;;;;;4955765;28;20534;-65
2022/10/24 16:13:18;;;;;;;1.57;1.40;;;17.80;99.90;;;;;;4955947;28;20456;-64
2022/10/24 16:15:46;;;;;;;2.00;1.70;;;17.80;99.90;;;;;;4955815;28;20522;-64
2022/10/24 16:18:13;;;;;;;3.20;1.80;;;17.80;99.90;;;;;;4955753;28;20463;-64
2022/10/24 16:20:40;;;;;;;2.17;1.70;;;17.80;99.90;;;;;;4955860;28;20482;-64
2022/10/24 16:23:07;;;;;;;3.23;1.90;;;17.80;99.90;;;;;;4955659;28;20464;-63
2022/10/24 16:25:36;;;;;;;2.37;1.57;;;17.70;99.90;;;;;;4955342;28;20895;-64
2022/10/24 16:28:04;;;;;;;2.77;1.77;;;17.70;99.90;;;;;;4955797;28;20510;-63
2022/10/24 16:30:33;;;;;;;2.80;1.90;;;17.70;99.90;;;;;;4956345;28;20459;-63
2022/10/24 16:33:00;;;;;;;3.60;1.80;;;17.60;99.90;;;;;;4955663;28;20471;-64
2022/10/24 16:35:28;;;;;;;6.87;2.90;;;17.50;99.90;;;;;;4955866;28;20534;-63
2022/10/24 16:37:57;;;;;;;2.30;2.00;;;17.50;99.90;;;;;;4959223;28;20524;-64
2022/10/24 16:40:26;;;;;;;5.03;2.20;;;17.40;99.90;;;;;;4961482;28;20518;-63
2022/10/24 16:42:55;;;;;;;3.63;2.10;;;17.30;99.90;;;;;;4959469;28;20494;-63
2022/10/24 16:45:22;;;;;;;3.10;2.30;;;17.20;99.90;;;;;;4959485;28;20452;-64
2022/10/24 16:47:50;;;;;;;2.30;2.10;;;17.10;99.90;;;;;;4959564;28;20456;-64
2022/10/24 16:50:22;;;;;;;6.17;2.90;;;17.00;99.90;;;;;;4959699;28;20490;-63
2022/10/24 16:52:50;;;;;;;6.23;2.27;;;17.00;99.90;;;;;;4960173;28;20804;-64
2022/10/24 16:55:16;;;;;;;4.00;2.40;;;17.00;99.90;;;;;;4959428;28;20529;-64
2022/10/24 16:57:43;;;;;;;3.17;2.20;;;16.90;99.90;;;;;;4959290;28;20455;-64
2022/10/24 17:00:13;;;;;;;2.93;2.40;;;16.80;99.90;;;;;;4959379;28;20455;-64
2022/10/24 17:02:41;;;;;;;3.03;2.23;;;16.60;99.90;;;;;;4959095;28;20471;-65
2022/10/24 17:05:09;;;;;;;3.10;1.83;;;16.50;99.90;;;;;;4959005;28;20443;-65